KJYM

Hillsdale Municipal Airport

Hillsdale, Michigan, USA
METAR KJYM 221415Z AUTO 26005KT 10SM CLR 06/M02 A3006 RMK AO2
Observed Flight Rules
Oct-22 @ 14:15 UTC (15 minutes ago) Visual Flight Rules
Wind Visibility Clouds
260° at 5 knots 10 miles
  • Clear skies
Temperatures Readings
Current 6°C / 43°F
Dewpoint -2°C / 28°F
Humidity 57%
Altimeter 30.06" Hg
Pressure 1018 hPa
Elevation 360
METAR KJYM 221415Z AUTO 26005KT 10SM CLR 06/M02 A3006 RMK AO2
Observed Flight Rules
Oct-22 @ 14:15 UTC
(15 minutes ago)
VFR
Wind Visibility
260° at 5 knots 10 miles
Clouds
  • Clear skies
Temperature Dewpoint
6°C / 43°F -2°C / 28°F
Humidity Altimeter Pressure
57% 30.06" Hg 1018 hPa